Terminal Aerodrome Forecast
Issued by NWS Cleveland, OH

Home | Current Version | Previous Version | Text Only | Print | Product List | Glossary On
Versions: 1 2 3 4 5 6 7 8 9 10 11 12 13 14 15 16 17 18
000
FTUS41 KCLE 291857 AAA
TAFCAK
TAF AMD
KCAK 291857Z 2919/3018 05006KT 6SM BR VCSH OVC008
      TEMPO 2919/2921 2SM BR OVC003
     FM292100 04008KT P6SM BKN015
     FM300300 08010KT 5SM BR BKN007
     FM301300 17012KT P6SM SCT010 BKN035
     FM301600 20012G20KT P6SM SCT040 SCT250=

USA.gov is the U.S. government's official web portal to all federal, state and local government web resources and services.